sensor_id;sensor_type;location;lat;lon;timestamp;P1;durP1;ratioP1;P2;durP2;ratioP2
67130;SDS011;54051;53.464;49.532;2023-04-24T00:00:40;8.90;;;3.75;;
67130;SDS011;54051;53.464;49.532;2023-04-24T00:03:06;7.35;;;3.95;;
67130;SDS011;54051;53.464;49.532;2023-04-24T00:05:33;8.20;;;3.72;;
67130;SDS011;54051;53.464;49.532;2023-04-24T00:07:59;8.43;;;3.80;;
67130;SDS011;54051;53.464;49.532;2023-04-24T00:10:25;6.97;;;3.70;;
67130;SDS011;54051;53.464;49.532;2023-04-24T00:12:51;9.60;;;3.92;;
67130;SDS011;54051;53.464;49.532;2023-04-24T00:15:18;7.53;;;4.25;;
67130;SDS011;54051;53.464;49.532;2023-04-24T00:17:44;9.20;;;4.10;;
67130;SDS011;54051;53.464;49.532;2023-04-24T00:20:10;9.00;;;4.22;;
67130;SDS011;54051;53.464;49.532;2023-04-24T00:22:36;8.90;;;3.80;;
67130;SDS011;54051;53.464;49.532;2023-04-24T00:25:03;7.15;;;4.05;;
67130;SDS011;54051;53.464;49.532;2023-04-24T00:27:29;8.98;;;3.90;;
67130;SDS011;54051;53.464;49.532;2023-04-24T00:29:55;6.70;;;3.90;;
67130;SDS011;54051;53.464;49.532;2023-04-24T00:32:22;6.90;;;3.88;;
67130;SDS011;54051;53.464;49.532;2023-04-24T00:34:48;9.50;;;4.32;;
67130;SDS011;54051;53.464;49.532;2023-04-24T00:37:14;10.47;;;4.33;;
67130;SDS011;54051;53.464;49.532;2023-04-24T00:39:40;7.18;;;4.00;;
67130;SDS011;54051;53.464;49.532;2023-04-24T00:42:07;8.95;;;4.05;;
67130;SDS011;54051;53.464;49.532;2023-04-24T00:44:33;9.00;;;4.13;;
67130;SDS011;54051;53.464;49.532;2023-04-24T00:47:00;7.53;;;3.70;;
67130;SDS011;54051;53.464;49.532;2023-04-24T00:49:27;7.63;;;3.80;;
67130;SDS011;54051;53.464;49.532;2023-04-24T00:51:53;8.00;;;4.60;;
67130;SDS011;54051;53.464;49.532;2023-04-24T00:54:19;7.72;;;4.10;;
67130;SDS011;54051;53.464;49.532;2023-04-24T00:56:46;7.53;;;4.20;;
67130;SDS011;54051;53.464;49.532;2023-04-24T00:59:12;10.35;;;4.93;;
67130;SDS011;54051;53.464;49.532;2023-04-24T01:01:39;7.60;;;4.18;;
67130;SDS011;54051;53.464;49.532;2023-04-24T01:04:09;7.55;;;4.63;;
67130;SDS011;54051;53.464;49.532;2023-04-24T01:06:37;7.82;;;4.63;;
67130;SDS011;54051;53.464;49.532;2023-04-24T01:09:05;9.60;;;4.90;;
67130;SDS011;54051;53.464;49.532;2023-04-24T01:11:33;8.00;;;4.65;;
67130;SDS011;54051;53.464;49.532;2023-04-24T01:14:00;8.32;;;4.63;;
67130;SDS011;54051;53.464;49.532;2023-04-24T01:16:26;8.93;;;4.47;;
67130;SDS011;54051;53.464;49.532;2023-04-24T01:18:52;7.78;;;4.43;;
67130;SDS011;54051;53.464;49.532;2023-04-24T01:21:19;9.73;;;4.90;;
67130;SDS011;54051;53.464;49.532;2023-04-24T01:23:48;11.00;;;5.25;;
67130;SDS011;54051;53.464;49.532;2023-04-24T01:26:16;11.43;;;5.15;;
67130;SDS011;54051;53.464;49.532;2023-04-24T01:28:42;14.38;;;4.90;;
67130;SDS011;54051;53.464;49.532;2023-04-24T01:31:09;13.05;;;5.10;;
67130;SDS011;54051;53.464;49.532;2023-04-24T01:33:35;10.57;;;4.88;;
67130;SDS011;54051;53.464;49.532;2023-04-24T01:36:01;10.20;;;4.60;;
67130;SDS011;54051;53.464;49.532;2023-04-24T01:38:27;10.35;;;5.05;;
67130;SDS011;54051;53.464;49.532;2023-04-24T01:40:53;11.13;;;5.40;;
67130;SDS011;54051;53.464;49.532;2023-04-24T01:43:19;11.30;;;5.38;;
67130;SDS011;54051;53.464;49.532;2023-04-24T01:45:46;11.25;;;5.53;;
67130;SDS011;54051;53.464;49.532;2023-04-24T01:48:12;11.18;;;5.65;;
67130;SDS011;54051;53.464;49.532;2023-04-24T01:50:38;9.70;;;5.30;;
67130;SDS011;54051;53.464;49.532;2023-04-24T01:53:05;10.90;;;5.28;;
67130;SDS011;54051;53.464;49.532;2023-04-24T01:55:31;8.77;;;5.20;;
67130;SDS011;54051;53.464;49.532;2023-04-24T01:57:57;8.85;;;5.30;;
67130;SDS011;54051;53.464;49.532;2023-04-24T02:00:25;11.43;;;5.95;;
67130;SDS011;54051;53.464;49.532;2023-04-24T02:02:51;11.80;;;6.10;;
67130;SDS011;54051;53.464;49.532;2023-04-24T02:05:17;10.17;;;5.37;;
67130;SDS011;54051;53.464;49.532;2023-04-24T02:07:43;14.10;;;6.30;;
67130;SDS011;54051;53.464;49.532;2023-04-24T02:10:10;15.60;;;5.85;;
67130;SDS011;54051;53.464;49.532;2023-04-24T02:12:36;11.40;;;5.57;;
67130;SDS011;54051;53.464;49.532;2023-04-24T02:15:02;11.85;;;5.78;;
67130;SDS011;54051;53.464;49.532;2023-04-24T02:17:28;12.18;;;5.90;;
67130;SDS011;54051;53.464;49.532;2023-04-24T02:22:21;11.90;;;6.47;;
67130;SDS011;54051;53.464;49.532;2023-04-24T02:24:48;13.23;;;6.20;;
67130;SDS011;54051;53.464;49.532;2023-04-24T02:27:14;11.98;;;6.07;;
67130;SDS011;54051;53.464;49.532;2023-04-24T02:29:40;13.23;;;6.17;;
67130;SDS011;54051;53.464;49.532;2023-04-24T02:32:06;14.32;;;6.63;;
67130;SDS011;54051;53.464;49.532;2023-04-24T02:34:33;12.60;;;6.28;;
67130;SDS011;54051;53.464;49.532;2023-04-24T02:36:59;14.55;;;6.88;;
67130;SDS011;54051;53.464;49.532;2023-04-24T02:39:25;11.82;;;6.32;;
67130;SDS011;54051;53.464;49.532;2023-04-24T02:41:51;15.23;;;7.00;;
67130;SDS011;54051;53.464;49.532;2023-04-24T02:44:17;14.95;;;7.10;;
67130;SDS011;54051;53.464;49.532;2023-04-24T02:46:43;12.83;;;7.20;;
67130;SDS011;54051;53.464;49.532;2023-04-24T02:49:10;14.60;;;7.37;;
67130;SDS011;54051;53.464;49.532;2023-04-24T02:54:08;14.85;;;7.60;;
67130;SDS011;54051;53.464;49.532;2023-04-24T02:56:37;12.80;;;6.70;;
67130;SDS011;54051;53.464;49.532;2023-04-24T02:59:03;13.60;;;7.53;;
67130;SDS011;54051;53.464;49.532;2023-04-24T03:01:29;17.52;;;7.65;;
67130;SDS011;54051;53.464;49.532;2023-04-24T03:03:56;16.75;;;7.35;;
67130;SDS011;54051;53.464;49.532;2023-04-24T03:06:23;13.38;;;7.75;;
67130;SDS011;54051;53.464;49.532;2023-04-24T03:08:49;12.90;;;8.23;;
67130;SDS011;54051;53.464;49.532;2023-04-24T03:11:15;15.02;;;7.78;;
67130;SDS011;54051;53.464;49.532;2023-04-24T03:13:41;15.13;;;7.80;;
67130;SDS011;54051;53.464;49.532;2023-04-24T03:16:07;17.30;;;8.27;;
67130;SDS011;54051;53.464;49.532;2023-04-24T03:18:33;17.50;;;7.97;;
67130;SDS011;54051;53.464;49.532;2023-04-24T03:21:00;15.82;;;8.23;;
67130;SDS011;54051;53.464;49.532;2023-04-24T03:23:26;12.88;;;8.00;;
67130;SDS011;54051;53.464;49.532;2023-04-24T03:25:52;15.83;;;8.30;;
67130;SDS011;54051;53.464;49.532;2023-04-24T03:28:18;14.43;;;8.18;;
67130;SDS011;54051;53.464;49.532;2023-04-24T03:30:45;14.50;;;8.93;;
67130;SDS011;54051;53.464;49.532;2023-04-24T03:33:11;15.18;;;8.65;;
67130;SDS011;54051;53.464;49.532;2023-04-24T03:35:37;14.55;;;8.32;;
67130;SDS011;54051;53.464;49.532;2023-04-24T03:38:04;10.90;;;7.47;;
67130;SDS011;54051;53.464;49.532;2023-04-24T03:40:30;12.43;;;8.32;;
67130;SDS011;54051;53.464;49.532;2023-04-24T03:43:08;15.52;;;9.20;;
67130;SDS011;54051;53.464;49.532;2023-04-24T03:45:34;14.90;;;9.25;;
67130;SDS011;54051;53.464;49.532;2023-04-24T03:48:00;13.77;;;8.98;;
67130;SDS011;54051;53.464;49.532;2023-04-24T03:50:26;13.27;;;8.75;;
67130;SDS011;54051;53.464;49.532;2023-04-24T03:52:54;13.65;;;8.32;;
67130;SDS011;54051;53.464;49.532;2023-04-24T03:55:23;10.93;;;7.68;;
67130;SDS011;54051;53.464;49.532;2023-04-24T03:57:49;11.93;;;7.70;;
67130;SDS011;54051;53.464;49.532;2023-04-24T04:00:15;15.55;;;8.07;;
67130;SDS011;54051;53.464;49.532;2023-04-24T04:02:41;13.80;;;7.85;;
67130;SDS011;54051;53.464;49.532;2023-04-24T04:05:08;13.38;;;8.07;;
67130;SDS011;54051;53.464;49.532;2023-04-24T04:07:34;18.98;;;8.48;;
67130;SDS011;54051;53.464;49.532;2023-04-24T04:10:00;14.85;;;8.40;;
67130;SDS011;54051;53.464;49.532;2023-04-24T04:12:26;11.48;;;7.07;;
67130;SDS011;54051;53.464;49.532;2023-04-24T04:17:18;9.68;;;6.25;;
67130;SDS011;54051;53.464;49.532;2023-04-24T04:19:44;10.50;;;6.60;;
67130;SDS011;54051;53.464;49.532;2023-04-24T04:22:10;9.80;;;5.90;;
67130;SDS011;54051;53.464;49.532;2023-04-24T04:27:03;9.38;;;6.03;;
67130;SDS011;54051;53.464;49.532;2023-04-24T04:29:30;10.35;;;6.28;;
67130;SDS011;54051;53.464;49.532;2023-04-24T04:31:57;10.65;;;5.90;;
67130;SDS011;54051;53.464;49.532;2023-04-24T04:34:24;8.90;;;5.35;;
67130;SDS011;54051;53.464;49.532;2023-04-24T04:39:16;9.27;;;5.35;;
67130;SDS011;54051;53.464;49.532;2023-04-24T04:41:44;8.75;;;5.35;;
67130;SDS011;54051;53.464;49.532;2023-04-24T04:44:11;8.00;;;4.97;;
67130;SDS011;54051;53.464;49.532;2023-04-24T04:46:38;9.02;;;5.25;;
67130;SDS011;54051;53.464;49.532;2023-04-24T04:51:30;8.68;;;5.32;;
67130;SDS011;54051;53.464;49.532;2023-04-24T04:53:56;8.40;;;4.90;;
67130;SDS011;54051;53.464;49.532;2023-04-24T04:58:48;9.73;;;4.60;;
67130;SDS011;54051;53.464;49.532;2023-04-24T05:01:14;9.43;;;4.60;;
67130;SDS011;54051;53.464;49.532;2023-04-24T05:03:40;9.68;;;4.93;;
67130;SDS011;54051;53.464;49.532;2023-04-24T05:06:06;7.50;;;4.57;;
67130;SDS011;54051;53.464;49.532;2023-04-24T05:08:33;9.38;;;4.75;;
67130;SDS011;54051;53.464;49.532;2023-04-24T05:10:59;9.95;;;5.07;;
67130;SDS011;54051;53.464;49.532;2023-04-24T05:13:25;10.18;;;5.35;;
67130;SDS011;54051;53.464;49.532;2023-04-24T05:15:52;9.93;;;5.25;;
67130;SDS011;54051;53.464;49.532;2023-04-24T05:18:18;10.30;;;5.65;;
67130;SDS011;54051;53.464;49.532;2023-04-24T05:20:44;8.20;;;4.57;;
67130;SDS011;54051;53.464;49.532;2023-04-24T05:23:10;9.38;;;4.82;;
67130;SDS011;54051;53.464;49.532;2023-04-24T05:25:37;9.07;;;4.72;;
67130;SDS011;54051;53.464;49.532;2023-04-24T05:28:04;10.60;;;5.03;;
67130;SDS011;54051;53.464;49.532;2023-04-24T05:30:31;9.57;;;5.07;;
67130;SDS011;54051;53.464;49.532;2023-04-24T05:32:57;11.15;;;4.80;;
67130;SDS011;54051;53.464;49.532;2023-04-24T05:35:23;46.80;;;6.90;;
67130;SDS011;54051;53.464;49.532;2023-04-24T05:37:49;8.25;;;4.90;;
67130;SDS011;54051;53.464;49.532;2023-04-24T05:40:15;8.98;;;4.63;;
67130;SDS011;54051;53.464;49.532;2023-04-24T05:42:41;8.98;;;4.80;;
67130;SDS011;54051;53.464;49.532;2023-04-24T05:45:07;8.57;;;4.05;;
67130;SDS011;54051;53.464;49.532;2023-04-24T05:47:35;8.02;;;4.20;;
67130;SDS011;54051;53.464;49.532;2023-04-24T05:50:01;10.18;;;3.92;;
67130;SDS011;54051;53.464;49.532;2023-04-24T05:52:27;8.27;;;4.10;;
67130;SDS011;54051;53.464;49.532;2023-04-24T05:54:53;12.68;;;4.70;;
67130;SDS011;54051;53.464;49.532;2023-04-24T05:57:19;7.78;;;3.97;;
67130;SDS011;54051;53.464;49.532;2023-04-24T05:59:45;8.50;;;3.90;;
67130;SDS011;54051;53.464;49.532;2023-04-24T06:02:11;8.63;;;3.75;;
67130;SDS011;54051;53.464;49.532;2023-04-24T06:04:37;7.57;;;3.30;;
67130;SDS011;54051;53.464;49.532;2023-04-24T06:07:03;6.05;;;3.45;;
67130;SDS011;54051;53.464;49.532;2023-04-24T06:09:30;8.05;;;3.53;;
67130;SDS011;54051;53.464;49.532;2023-04-24T06:11:56;7.93;;;3.38;;
67130;SDS011;54051;53.464;49.532;2023-04-24T06:14:22;7.03;;;3.60;;
67130;SDS011;54051;53.464;49.532;2023-04-24T06:16:49;8.15;;;3.38;;
67130;SDS011;54051;53.464;49.532;2023-04-24T06:19:15;6.72;;;3.00;;
67130;SDS011;54051;53.464;49.532;2023-04-24T06:21:41;5.63;;;2.90;;
67130;SDS011;54051;53.464;49.532;2023-04-24T06:24:07;6.07;;;2.90;;
67130;SDS011;54051;53.464;49.532;2023-04-24T06:26:33;6.10;;;3.00;;
67130;SDS011;54051;53.464;49.532;2023-04-24T06:28:59;7.53;;;3.00;;
67130;SDS011;54051;53.464;49.532;2023-04-24T06:31:25;4.70;;;2.67;;
67130;SDS011;54051;53.464;49.532;2023-04-24T06:33:51;7.07;;;3.00;;
67130;SDS011;54051;53.464;49.532;2023-04-24T06:36:17;7.85;;;3.00;;
67130;SDS011;54051;53.464;49.532;2023-04-24T06:38:43;14.68;;;4.18;;
67130;SDS011;54051;53.464;49.532;2023-04-24T06:41:09;7.65;;;2.80;;
67130;SDS011;54051;53.464;49.532;2023-04-24T06:43:36;6.50;;;2.97;;
67130;SDS011;54051;53.464;49.532;2023-04-24T06:46:02;7.13;;;4.20;;
67130;SDS011;54051;53.464;49.532;2023-04-24T06:48:28;6.28;;;3.15;;
67130;SDS011;54051;53.464;49.532;2023-04-24T06:50:55;6.68;;;2.90;;
67130;SDS011;54051;53.464;49.532;2023-04-24T06:53:21;6.60;;;2.85;;
67130;SDS011;54051;53.464;49.532;2023-04-24T06:55:47;6.53;;;3.03;;
67130;SDS011;54051;53.464;49.532;2023-04-24T06:58:13;8.60;;;3.05;;
67130;SDS011;54051;53.464;49.532;2023-04-24T07:00:41;4.88;;;2.90;;
67130;SDS011;54051;53.464;49.532;2023-04-24T07:03:07;8.05;;;2.95;;
67130;SDS011;54051;53.464;49.532;2023-04-24T07:05:33;5.65;;;3.00;;
67130;SDS011;54051;53.464;49.532;2023-04-24T07:08:00;7.50;;;3.65;;
67130;SDS011;54051;53.464;49.532;2023-04-24T07:10:27;7.75;;;4.35;;
67130;SDS011;54051;53.464;49.532;2023-04-24T07:12:54;7.75;;;4.40;;
67130;SDS011;54051;53.464;49.532;2023-04-24T07:15:23;9.23;;;3.00;;
67130;SDS011;54051;53.464;49.532;2023-04-24T07:17:49;6.85;;;3.28;;
67130;SDS011;54051;53.464;49.532;2023-04-24T07:20:16;5.07;;;2.80;;
67130;SDS011;54051;53.464;49.532;2023-04-24T07:22:42;7.78;;;2.95;;
67130;SDS011;54051;53.464;49.532;2023-04-24T07:25:08;6.28;;;2.70;;
67130;SDS011;54051;53.464;49.532;2023-04-24T07:27:35;5.80;;;2.92;;
67130;SDS011;54051;53.464;49.532;2023-04-24T07:30:02;7.13;;;3.28;;
67130;SDS011;54051;53.464;49.532;2023-04-24T07:32:29;5.85;;;3.03;;
67130;SDS011;54051;53.464;49.532;2023-04-24T07:34:56;5.35;;;3.05;;
67130;SDS011;54051;53.464;49.532;2023-04-24T07:37:22;6.75;;;3.10;;
67130;SDS011;54051;53.464;49.532;2023-04-24T07:39:49;5.95;;;2.80;;
67130;SDS011;54051;53.464;49.532;2023-04-24T07:42:15;6.43;;;3.20;;
67130;SDS011;54051;53.464;49.532;2023-04-24T07:44:41;6.03;;;2.90;;
67130;SDS011;54051;53.464;49.532;2023-04-24T07:47:07;4.97;;;2.60;;
67130;SDS011;54051;53.464;49.532;2023-04-24T07:49:34;5.53;;;2.80;;
67130;SDS011;54051;53.464;49.532;2023-04-24T07:52:00;5.90;;;2.83;;
67130;SDS011;54051;53.464;49.532;2023-04-24T07:54:28;7.30;;;2.88;;
67130;SDS011;54051;53.464;49.532;2023-04-24T07:56:54;10.38;;;3.00;;
67130;SDS011;54051;53.464;49.532;2023-04-24T07:59:20;6.30;;;2.70;;
67130;SDS011;54051;53.464;49.532;2023-04-24T08:01:49;5.45;;;2.70;;
67130;SDS011;54051;53.464;49.532;2023-04-24T08:04:16;5.68;;;2.65;;
67130;SDS011;54051;53.464;49.532;2023-04-24T08:06:43;6.50;;;2.60;;
67130;SDS011;54051;53.464;49.532;2023-04-24T08:09:09;7.07;;;2.80;;
67130;SDS011;54051;53.464;49.532;2023-04-24T08:11:36;8.48;;;2.80;;
67130;SDS011;54051;53.464;49.532;2023-04-24T08:14:02;7.13;;;2.80;;
67130;SDS011;54051;53.464;49.532;2023-04-24T08:16:28;5.97;;;3.00;;
67130;SDS011;54051;53.464;49.532;2023-04-24T08:18:54;5.20;;;2.38;;
67130;SDS011;54051;53.464;49.532;2023-04-24T08:21:20;5.78;;;2.83;;
67130;SDS011;54051;53.464;49.532;2023-04-24T08:23:46;7.13;;;2.50;;
67130;SDS011;54051;53.464;49.532;2023-04-24T08:26:13;5.28;;;2.50;;
67130;SDS011;54051;53.464;49.532;2023-04-24T08:28:39;5.13;;;2.70;;
67130;SDS011;54051;53.464;49.532;2023-04-24T08:31:05;8.90;;;2.70;;
67130;SDS011;54051;53.464;49.532;2023-04-24T08:33:31;6.63;;;2.85;;
67130;SDS011;54051;53.464;49.532;2023-04-24T08:36:01;6.20;;;2.97;;
67130;SDS011;54051;53.464;49.532;2023-04-24T08:38:28;6.45;;;2.85;;
67130;SDS011;54051;53.464;49.532;2023-04-24T08:43:21;7.28;;;3.40;;
67130;SDS011;54051;53.464;49.532;2023-04-24T08:45:48;13.85;;;3.10;;
67130;SDS011;54051;53.464;49.532;2023-04-24T08:48:15;7.65;;;2.92;;
67130;SDS011;54051;53.464;49.532;2023-04-24T08:50:42;7.18;;;2.92;;
67130;SDS011;54051;53.464;49.532;2023-04-24T08:53:10;7.45;;;3.00;;
67130;SDS011;54051;53.464;49.532;2023-04-24T08:55:37;4.82;;;2.75;;
67130;SDS011;54051;53.464;49.532;2023-04-24T08:58:04;6.25;;;3.03;;
67130;SDS011;54051;53.464;49.532;2023-04-24T09:00:30;6.00;;;2.90;;
67130;SDS011;54051;53.464;49.532;2023-04-24T09:02:57;5.80;;;2.83;;
67130;SDS011;54051;53.464;49.532;2023-04-24T09:05:25;5.13;;;2.78;;
67130;SDS011;54051;53.464;49.532;2023-04-24T09:07:54;6.78;;;3.13;;
67130;SDS011;54051;53.464;49.532;2023-04-24T09:10:22;8.77;;;3.10;;
67130;SDS011;54051;53.464;49.532;2023-04-24T09:12:50;8.52;;;3.30;;
67130;SDS011;54051;53.464;49.532;2023-04-24T09:15:20;6.32;;;3.00;;
67130;SDS011;54051;53.464;49.532;2023-04-24T09:17:47;5.80;;;2.90;;
67130;SDS011;54051;53.464;49.532;2023-04-24T09:25:06;8.88;;;2.78;;
67130;SDS011;54051;53.464;49.532;2023-04-24T09:27:34;5.88;;;2.80;;
67130;SDS011;54051;53.464;49.532;2023-04-24T09:30:01;5.22;;;2.97;;
67130;SDS011;54051;53.464;49.532;2023-04-24T09:32:29;6.93;;;2.72;;
67130;SDS011;54051;53.464;49.532;2023-04-24T09:37:36;5.82;;;2.60;;
67130;SDS011;54051;53.464;49.532;2023-04-24T09:40:13;7.57;;;3.15;;
67130;SDS011;54051;53.464;49.532;2023-04-24T09:42:50;5.78;;;2.92;;
67130;SDS011;54051;53.464;49.532;2023-04-24T09:45:22;6.28;;;2.80;;
67130;SDS011;54051;53.464;49.532;2023-04-24T09:48:11;7.45;;;3.33;;
67130;SDS011;54051;53.464;49.532;2023-04-24T09:50:37;6.80;;;3.22;;
67130;SDS011;54051;53.464;49.532;2023-04-24T09:53:04;4.82;;;2.75;;
67130;SDS011;54051;53.464;49.532;2023-04-24T09:55:35;6.63;;;3.08;;
67130;SDS011;54051;53.464;49.532;2023-04-24T09:58:07;7.07;;;2.67;;
67130;SDS011;54051;53.464;49.532;2023-04-24T10:00:34;6.22;;;2.63;;
67130;SDS011;54051;53.464;49.532;2023-04-24T10:03:00;5.95;;;2.83;;
67130;SDS011;54051;53.464;49.532;2023-04-24T10:05:31;5.28;;;2.60;;
67130;SDS011;54051;53.464;49.532;2023-04-24T10:10:35;6.28;;;3.00;;
67130;SDS011;54051;53.464;49.532;2023-04-24T10:13:06;6.25;;;2.90;;
67130;SDS011;54051;53.464;49.532;2023-04-24T10:15:35;8.32;;;4.35;;
67130;SDS011;54051;53.464;49.532;2023-04-24T10:18:02;8.45;;;3.63;;
67130;SDS011;54051;53.464;49.532;2023-04-24T10:20:32;9.10;;;3.28;;
67130;SDS011;54051;53.464;49.532;2023-04-24T10:22:59;5.97;;;2.85;;
67130;SDS011;54051;53.464;49.532;2023-04-24T10:25:30;5.68;;;2.88;;
67130;SDS011;54051;53.464;49.532;2023-04-24T10:27:58;6.15;;;3.20;;
67130;SDS011;54051;53.464;49.532;2023-04-24T10:30:26;6.72;;;3.70;;
67130;SDS011;54051;53.464;49.532;2023-04-24T10:33:01;7.00;;;3.42;;
67130;SDS011;54051;53.464;49.532;2023-04-24T10:35:30;6.47;;;3.38;;
67130;SDS011;54051;53.464;49.532;2023-04-24T10:37:59;8.23;;;3.35;;
67130;SDS011;54051;53.464;49.532;2023-04-24T10:40:34;5.57;;;3.28;;
67130;SDS011;54051;53.464;49.532;2023-04-24T10:43:02;8.63;;;4.50;;
67130;SDS011;54051;53.464;49.532;2023-04-24T10:45:31;7.05;;;3.63;;
67130;SDS011;54051;53.464;49.532;2023-04-24T10:47:59;5.70;;;3.40;;
67130;SDS011;54051;53.464;49.532;2023-04-24T10:50:30;5.57;;;3.22;;
67130;SDS011;54051;53.464;49.532;2023-04-24T10:53:12;7.05;;;3.55;;
67130;SDS011;54051;53.464;49.532;2023-04-24T10:58:11;7.32;;;3.08;;
67130;SDS011;54051;53.464;49.532;2023-04-24T11:00:38;6.38;;;2.90;;
67130;SDS011;54051;53.464;49.532;2023-04-24T11:03:06;6.68;;;3.08;;
67130;SDS011;54051;53.464;49.532;2023-04-24T11:08:44;6.18;;;3.15;;
67130;SDS011;54051;53.464;49.532;2023-04-24T11:11:12;7.20;;;3.30;;
67130;SDS011;54051;53.464;49.532;2023-04-24T11:18:51;8.35;;;4.47;;
67130;SDS011;54051;53.464;49.532;2023-04-24T11:21:25;8.77;;;5.57;;
67130;SDS011;54051;53.464;49.532;2023-04-24T11:29:47;8.40;;;4.68;;
67130;SDS011;54051;53.464;49.532;2023-04-24T11:32:27;5.00;;;2.97;;
67130;SDS011;54051;53.464;49.532;2023-04-24T11:34:58;8.07;;;4.97;;
67130;SDS011;54051;53.464;49.532;2023-04-24T11:37:29;9.00;;;5.60;;
67130;SDS011;54051;53.464;49.532;2023-04-24T11:40:06;10.48;;;7.20;;
67130;SDS011;54051;53.464;49.532;2023-04-24T11:42:40;8.23;;;4.85;;
67130;SDS011;54051;53.464;49.532;2023-04-24T11:45:16;7.60;;;4.53;;
67130;SDS011;54051;53.464;49.532;2023-04-24T11:47:44;7.45;;;5.20;;
67130;SDS011;54051;53.464;49.532;2023-04-24T11:50:12;6.93;;;4.45;;
67130;SDS011;54051;53.464;49.532;2023-04-24T11:52:42;6.22;;;3.70;;
67130;SDS011;54051;53.464;49.532;2023-04-24T11:57:42;5.15;;;2.58;;
67130;SDS011;54051;53.464;49.532;2023-04-24T12:00:20;5.35;;;2.75;;
67130;SDS011;54051;53.464;49.532;2023-04-24T12:02:51;4.50;;;2.63;;
67130;SDS011;54051;53.464;49.532;2023-04-24T12:05:29;8.18;;;3.03;;
67130;SDS011;54051;53.464;49.532;2023-04-24T12:07:57;6.25;;;3.00;;
67130;SDS011;54051;53.464;49.532;2023-04-24T12:10:23;7.10;;;2.90;;
67130;SDS011;54051;53.464;49.532;2023-04-24T12:12:51;5.78;;;3.05;;
67130;SDS011;54051;53.464;49.532;2023-04-24T12:15:19;5.55;;;2.70;;
67130;SDS011;54051;53.464;49.532;2023-04-24T12:17:46;6.78;;;3.08;;
67130;SDS011;54051;53.464;49.532;2023-04-24T12:20:13;7.57;;;3.03;;
67130;SDS011;54051;53.464;49.532;2023-04-24T12:25:15;5.30;;;2.63;;
67130;SDS011;54051;53.464;49.532;2023-04-24T12:27:45;5.60;;;2.97;;
67130;SDS011;54051;53.464;49.532;2023-04-24T12:30:13;7.07;;;2.53;;
67130;SDS011;54051;53.464;49.532;2023-04-24T12:32:42;5.68;;;2.90;;
67130;SDS011;54051;53.464;49.532;2023-04-24T12:35:13;6.85;;;3.13;;
67130;SDS011;54051;53.464;49.532;2023-04-24T12:37:42;6.07;;;3.30;;
67130;SDS011;54051;53.464;49.532;2023-04-24T12:40:09;8.32;;;6.25;;
67130;SDS011;54051;53.464;49.532;2023-04-24T12:42:46;10.52;;;7.13;;
67130;SDS011;54051;53.464;49.532;2023-04-24T12:45:15;8.43;;;5.00;;
67130;SDS011;54051;53.464;49.532;2023-04-24T12:47:42;9.23;;;5.05;;
67130;SDS011;54051;53.464;49.532;2023-04-24T12:50:12;6.82;;;4.50;;
67130;SDS011;54051;53.464;49.532;2023-04-24T12:52:39;6.75;;;4.38;;
67130;SDS011;54051;53.464;49.532;2023-04-24T12:55:07;7.95;;;2.88;;
67130;SDS011;54051;53.464;49.532;2023-04-24T12:57:35;5.15;;;2.78;;
67130;SDS011;54051;53.464;49.532;2023-04-24T13:00:03;4.60;;;2.30;;
67130;SDS011;54051;53.464;49.532;2023-04-24T13:02:30;7.05;;;2.30;;
67130;SDS011;54051;53.464;49.532;2023-04-24T13:07:26;6.38;;;3.00;;
67130;SDS011;54051;53.464;49.532;2023-04-24T13:12:20;6.18;;;2.40;;
67130;SDS011;54051;53.464;49.532;2023-04-24T13:14:46;5.47;;;2.60;;
67130;SDS011;54051;53.464;49.532;2023-04-24T13:17:13;6.35;;;3.20;;
67130;SDS011;54051;53.464;49.532;2023-04-24T13:22:06;5.70;;;2.70;;
67130;SDS011;54051;53.464;49.532;2023-04-24T13:24:34;5.13;;;2.80;;
67130;SDS011;54051;53.464;49.532;2023-04-24T13:27:00;5.35;;;2.28;;
67130;SDS011;54051;53.464;49.532;2023-04-24T13:29:28;11.18;;;5.20;;
67130;SDS011;54051;53.464;49.532;2023-04-24T13:31:54;5.90;;;3.40;;
67130;SDS011;54051;53.464;49.532;2023-04-24T13:34:22;6.03;;;2.88;;
67130;SDS011;54051;53.464;49.532;2023-04-24T13:36:49;5.97;;;3.63;;
67130;SDS011;54051;53.464;49.532;2023-04-24T13:39:17;4.40;;;2.35;;
67130;SDS011;54051;53.464;49.532;2023-04-24T13:41:43;7.82;;;3.40;;
67130;SDS011;54051;53.464;49.532;2023-04-24T13:44:10;9.18;;;3.88;;
67130;SDS011;54051;53.464;49.532;2023-04-24T13:46:37;7.90;;;3.90;;
67130;SDS011;54051;53.464;49.532;2023-04-24T13:49:03;10.95;;;5.10;;
67130;SDS011;54051;53.464;49.532;2023-04-24T13:51:29;8.52;;;4.38;;
67130;SDS011;54051;53.464;49.532;2023-04-24T13:53:56;5.45;;;2.67;;
67130;SDS011;54051;53.464;49.532;2023-04-24T13:56:22;5.30;;;2.70;;
67130;SDS011;54051;53.464;49.532;2023-04-24T13:58:48;6.78;;;2.60;;
67130;SDS011;54051;53.464;49.532;2023-04-24T14:01:15;6.68;;;3.08;;
67130;SDS011;54051;53.464;49.532;2023-04-24T14:03:41;5.63;;;2.42;;
67130;SDS011;54051;53.464;49.532;2023-04-24T14:06:12;5.88;;;3.20;;
67130;SDS011;54051;53.464;49.532;2023-04-24T14:08:38;11.00;;;4.70;;
67130;SDS011;54051;53.464;49.532;2023-04-24T14:11:04;6.28;;;2.65;;
67130;SDS011;54051;53.464;49.532;2023-04-24T14:15:57;7.65;;;3.40;;
67130;SDS011;54051;53.464;49.532;2023-04-24T14:18:27;6.97;;;2.78;;
67130;SDS011;54051;53.464;49.532;2023-04-24T14:20:55;5.75;;;2.72;;
67130;SDS011;54051;53.464;49.532;2023-04-24T14:23:21;6.82;;;2.60;;
67130;SDS011;54051;53.464;49.532;2023-04-24T14:25:47;5.43;;;2.50;;
67130;SDS011;54051;53.464;49.532;2023-04-24T14:28:17;10.30;;;2.60;;
67130;SDS011;54051;53.464;49.532;2023-04-24T14:30:44;6.85;;;2.38;;
67130;SDS011;54051;53.464;49.532;2023-04-24T14:33:11;7.28;;;2.17;;
67130;SDS011;54051;53.464;49.532;2023-04-24T14:35:38;6.53;;;2.38;;
67130;SDS011;54051;53.464;49.532;2023-04-24T14:38:05;4.80;;;2.38;;
67130;SDS011;54051;53.464;49.532;2023-04-24T14:40:32;8.15;;;2.72;;
67130;SDS011;54051;53.464;49.532;2023-04-24T14:42:58;5.20;;;2.55;;
67130;SDS011;54051;53.464;49.532;2023-04-24T14:45:25;11.18;;;3.20;;
67130;SDS011;54051;53.464;49.532;2023-04-24T14:47:52;7.15;;;2.60;;
67130;SDS011;54051;53.464;49.532;2023-04-24T14:52:44;7.55;;;2.78;;
67130;SDS011;54051;53.464;49.532;2023-04-24T14:57:37;10.80;;;3.55;;
67130;SDS011;54051;53.464;49.532;2023-04-24T15:00:04;11.93;;;4.38;;
67130;SDS011;54051;53.464;49.532;2023-04-24T15:02:34;12.88;;;3.75;;
67130;SDS011;54051;53.464;49.532;2023-04-24T15:05:02;11.40;;;3.35;;
67130;SDS011;54051;53.464;49.532;2023-04-24T15:07:29;8.55;;;3.40;;
67130;SDS011;54051;53.464;49.532;2023-04-24T15:09:56;11.82;;;3.13;;
67130;SDS011;54051;53.464;49.532;2023-04-24T15:12:22;9.80;;;3.72;;
67130;SDS011;54051;53.464;49.532;2023-04-24T15:14:48;6.70;;;2.80;;
67130;SDS011;54051;53.464;49.532;2023-04-24T15:17:15;9.48;;;3.30;;
67130;SDS011;54051;53.464;49.532;2023-04-24T15:19:41;10.85;;;3.60;;
67130;SDS011;54051;53.464;49.532;2023-04-24T15:22:09;9.55;;;3.90;;
67130;SDS011;54051;53.464;49.532;2023-04-24T15:24:35;6.78;;;2.80;;
67130;SDS011;54051;53.464;49.532;2023-04-24T15:27:01;8.80;;;2.63;;
67130;SDS011;54051;53.464;49.532;2023-04-24T15:31:54;7.30;;;2.78;;
67130;SDS011;54051;53.464;49.532;2023-04-24T15:34:21;8.07;;;2.70;;
67130;SDS011;54051;53.464;49.532;2023-04-24T15:36:47;6.13;;;2.27;;
67130;SDS011;54051;53.464;49.532;2023-04-24T15:39:14;7.07;;;3.10;;